createdAt,value
2022-08-11T11:48:12.639Z,59.80
2022-08-11T11:50:40.562Z,59.90
2022-08-11T11:53:09.863Z,59.60
2022-08-11T11:55:37.994Z,58.90
2022-08-11T11:58:25.616Z,58.80
2022-08-11T12:01:13.352Z,57.00
2022-08-11T12:03:41.300Z,58.10
2022-08-11T12:06:12.330Z,58.30
2022-08-11T12:08:40.106Z,57.50
2022-08-11T12:11:31.793Z,57.10
2022-08-11T12:14:03.191Z,56.70
2022-08-11T12:16:43.543Z,57.80
2022-08-11T12:19:16.931Z,56.80
2022-08-11T12:22:03.357Z,58.00
2022-08-11T12:25:04.872Z,55.60
2022-08-11T12:27:32.472Z,55.50
2022-08-11T12:30:06.181Z,56.10
2022-08-11T12:32:36.466Z,57.00
2022-08-11T12:35:05.515Z,56.80
2022-08-11T12:37:42.177Z,57.10
2022-08-11T12:40:43.517Z,56.70
2022-08-11T12:43:42.829Z,54.80
2022-08-11T12:46:24.364Z,55.30
2022-08-11T12:49:16.081Z,55.20
2022-08-11T12:52:14.534Z,55.20
2022-08-11T12:55:00.630Z,54.50
2022-08-11T12:58:03.701Z,55.10
2022-08-11T13:00:51.495Z,56.60
2022-08-11T13:03:39.317Z,54.20
2022-08-11T13:06:07.942Z,53.80
2022-08-11T13:08:38.070Z,55.00
2022-08-11T13:11:25.378Z,54.40
2022-08-11T13:14:15.201Z,54.60
2022-08-11T13:17:03.031Z,54.80
2022-08-11T13:19:33.009Z,54.10
2022-08-11T13:22:02.631Z,53.80
2022-08-11T13:24:34.154Z,54.20
2022-08-11T13:27:03.023Z,55.90
2022-08-11T13:29:30.550Z,55.00
2022-08-11T13:32:00.131Z,54.70
2022-08-11T13:34:36.770Z,54.60
2022-08-11T13:37:05.671Z,53.70
2022-08-11T13:39:34.740Z,54.70
2022-08-11T13:42:03.725Z,53.50
2022-08-11T13:44:36.260Z,55.00
2022-08-11T13:47:06.002Z,54.10
2022-08-11T13:49:39.509Z,52.70
2022-08-11T13:52:13.200Z,52.50
2022-08-11T13:54:43.390Z,53.70
2022-08-11T13:58:06.804Z,55.00
2022-08-11T14:00:13.037Z,54.40
2022-08-11T14:02:44.603Z,54.60
2022-08-11T14:05:17.833Z,54.30
2022-08-11T14:07:53.613Z,53.50
2022-08-11T14:10:24.225Z,53.30
2022-08-11T14:13:42.353Z,52.50
2022-08-11T14:16:37.465Z,53.40
2022-08-11T14:19:12.687Z,53.90
2022-08-11T14:22:07.097Z,54.10
2022-08-11T14:24:40.796Z,53.50
2022-08-11T14:28:30.079Z,53.80
2022-08-11T14:29:59.698Z,53.50
2022-08-11T14:32:27.769Z,53.60
2022-08-11T14:34:55.881Z,53.80
2022-08-11T14:37:25.761Z,54.10
2022-08-11T14:40:02.251Z,54.10
2022-08-11T14:42:49.379Z,53.40
2022-08-11T14:45:57.562Z,53.70
2022-08-11T14:48:24.155Z,52.90
2022-08-11T14:50:52.698Z,52.60
2022-08-11T14:53:23.504Z,53.50
2022-08-11T14:56:10.722Z,54.40
2022-08-11T14:58:40.798Z,52.90
2022-08-11T15:01:28.287Z,53.20
2022-08-11T15:04:04.344Z,53.50
2022-08-11T15:06:46.622Z,53.10
2022-08-11T15:09:14.628Z,52.90
2022-08-11T15:12:02.281Z,52.70
2022-08-11T15:14:48.717Z,53.40
2022-08-11T15:17:23.966Z,53.20
2022-08-11T15:20:19.079Z,53.30
2022-08-11T15:23:08.930Z,53.00
2022-08-11T15:25:48.344Z,52.80
2022-08-11T15:28:37.167Z,52.00
2022-08-11T15:31:23.604Z,51.40
2022-08-11T15:34:16.416Z,52.70
2022-08-11T15:37:06.809Z,52.60
2022-08-11T15:40:31.514Z,51.50
2022-08-11T15:43:33.859Z,52.10
2022-08-11T15:46:12.052Z,52.70
2022-08-11T15:48:49.199Z,54.00
2022-08-11T15:51:29.570Z,55.30
2022-08-11T15:53:59.810Z,55.60
2022-08-11T15:56:29.569Z,55.40
2022-08-11T15:59:41.978Z,55.60
2022-08-11T16:02:31.302Z,54.40
2022-08-11T16:05:06.064Z,55.70
2022-08-11T16:07:37.642Z,55.70
2022-08-11T16:10:18.830Z,56.50
2022-08-11T16:13:07.908Z,55.70
2022-08-11T16:15:58.312Z,55.70
2022-08-11T16:18:42.314Z,56.30
2022-08-11T16:21:34.133Z,56.90
2022-08-11T16:24:06.983Z,54.70
2022-08-11T16:27:07.693Z,55.80
2022-08-11T16:29:27.906Z,55.00
2022-08-11T16:32:16.410Z,54.60
2022-08-11T16:35:13.853Z,54.80
2022-08-11T16:38:01.908Z,56.10
2022-08-11T16:40:31.077Z,55.30
2022-08-11T16:43:18.525Z,55.60
2022-08-11T16:46:05.633Z,56.50
2022-08-11T16:48:38.489Z,57.30
2022-08-11T16:51:07.973Z,56.40
2022-08-11T16:54:03.218Z,57.40
2022-08-11T16:56:49.396Z,57.60
2022-08-11T16:59:36.775Z,58.40
2022-08-11T17:02:35.761Z,58.80
2022-08-11T17:05:28.272Z,59.00
2022-08-11T17:08:16.965Z,59.20
2022-08-11T17:11:11.704Z,59.20
2022-08-11T17:14:06.146Z,59.00
2022-08-11T17:16:37.810Z,59.60
2022-08-11T17:19:16.335Z,59.70
2022-08-11T17:22:06.237Z,59.70
2022-08-11T17:24:38.401Z,59.80
2022-08-11T17:27:08.947Z,60.20
2022-08-11T17:29:53.987Z,60.50
2022-08-11T17:33:07.375Z,60.10
2022-08-11T17:35:39.412Z,60.60
2022-08-11T17:38:15.899Z,60.50
2022-08-11T17:41:28.607Z,60.50
2022-08-11T17:44:15.627Z,60.70
2022-08-11T17:47:06.142Z,60.30
2022-08-11T17:49:39.574Z,60.90
2022-08-11T17:52:28.789Z,61.20
2022-08-11T17:55:18.200Z,61.30
2022-08-11T17:58:25.349Z,61.50
2022-08-11T18:00:54.997Z,62.40
2022-08-11T18:03:39.306Z,61.90
2022-08-11T18:06:12.296Z,61.90
2022-08-11T18:09:04.671Z,62.50
2022-08-11T18:12:11.240Z,62.40
2022-08-11T18:15:00.821Z,62.60
2022-08-11T18:17:47.036Z,62.50
2022-08-11T18:20:33.245Z,62.80
2022-08-11T18:23:40.380Z,62.70
2022-08-11T18:26:30.944Z,63.00
2022-08-11T18:29:18.933Z,63.20
2022-08-11T18:32:08.959Z,63.30
2022-08-11T18:34:58.444Z,63.40
2022-08-11T18:37:53.392Z,63.50
2022-08-11T18:40:44.954Z,63.40
2022-08-11T18:43:33.338Z,63.70
2022-08-11T18:46:25.647Z,63.50
2022-08-11T18:49:25.107Z,63.90
2022-08-11T18:52:16.133Z,63.80
2022-08-11T18:55:08.185Z,63.70
2022-08-11T18:57:59.825Z,64.00
2022-08-11T19:00:47.095Z,64.00
2022-08-11T19:03:43.378Z,64.50
2022-08-11T19:06:40.889Z,64.70
2022-08-11T19:09:31.359Z,65.20
2022-08-11T19:12:19.420Z,66.70
2022-08-11T19:15:08.530Z,66.70
2022-08-11T19:17:58.756Z,67.50
2022-08-11T19:20:48.486Z,68.30
2022-08-11T19:23:38.386Z,68.20
2022-08-11T19:26:26.406Z,69.50
2022-08-11T19:30:04.805Z,69.60
2022-08-11T19:32:21.060Z,69.80
2022-08-11T19:35:08.479Z,70.30
2022-08-11T19:37:55.266Z,71.50
2022-08-11T19:40:41.208Z,71.50
2022-08-11T19:43:28.325Z,71.90
2022-08-11T19:46:17.218Z,72.70
2022-08-11T19:49:07.754Z,72.50
2022-08-11T19:51:54.853Z,73.10
2022-08-11T19:54:47.076Z,72.40
2022-08-11T19:57:39.272Z,73.80
2022-08-11T20:00:32.251Z,73.70
2022-08-11T20:03:20.133Z,74.60
2022-08-11T20:06:08.450Z,75.70
2022-08-11T20:08:59.037Z,74.90
2022-08-11T20:11:50.775Z,75.00
2022-08-11T20:14:40.056Z,75.70
2022-08-11T20:17:27.086Z,75.60
2022-08-11T20:20:13.615Z,75.00
2022-08-11T20:23:01.588Z,75.10
2022-08-11T20:25:48.816Z,74.90
2022-08-11T20:28:38.261Z,74.50
2022-08-11T20:31:26.431Z,74.20
2022-08-11T20:34:14.292Z,74.00
2022-08-11T20:37:01.989Z,73.60
2022-08-11T20:39:49.805Z,73.30
2022-08-11T20:42:38.889Z,73.90
2022-08-11T20:45:29.187Z,74.10
2022-08-11T20:48:16.302Z,73.80
2022-08-11T20:51:09.379Z,74.00
2022-08-11T20:54:05.973Z,73.50
2022-08-11T20:56:55.050Z,73.50
2022-08-11T21:02:52.399Z,74.30
2022-08-11T21:06:08.958Z,74.00
2022-08-11T21:08:50.782Z,74.70
2022-08-11T21:11:37.726Z,75.00
2022-08-11T21:14:29.806Z,74.10
2022-08-11T21:17:27.915Z,75.20
2022-08-11T21:20:24.519Z,74.50
2022-08-11T21:23:27.540Z,75.00
2022-08-11T21:26:22.191Z,75.20
2022-08-11T21:29:09.994Z,75.00
2022-08-11T21:31:57.596Z,75.40
2022-08-11T21:34:44.891Z,74.40
2022-08-11T21:37:34.218Z,75.40
2022-08-11T21:40:21.349Z,75.40
2022-08-11T21:43:11.167Z,75.10
2022-08-11T21:45:58.826Z,74.40
2022-08-11T21:48:46.622Z,74.70
2022-08-11T21:51:34.829Z,74.50
2022-08-11T21:54:22.208Z,74.70
2022-08-11T21:57:09.151Z,74.40
2022-08-11T22:00:03.828Z,74.40
2022-08-11T22:02:58.522Z,75.30
2022-08-11T22:05:49.117Z,75.10
2022-08-11T22:08:34.986Z,75.60
2022-08-11T22:11:32.048Z,74.90
2022-08-11T22:14:23.145Z,74.90
2022-08-11T22:17:10.547Z,74.60
2022-08-11T22:19:58.189Z,74.70
2022-08-11T22:22:51.945Z,75.00
2022-08-11T22:25:46.477Z,75.00
2022-08-11T22:28:37.748Z,74.80
2022-08-11T22:31:25.382Z,75.90
2022-08-11T22:34:13.272Z,76.00
2022-08-11T22:37:00.094Z,75.60
2022-08-11T22:40:01.907Z,76.10
2022-08-11T22:42:50.574Z,76.00
2022-08-11T22:45:37.470Z,75.90
2022-08-11T22:48:28.317Z,76.20
2022-08-11T22:51:16.417Z,76.70
2022-08-11T22:54:03.502Z,77.40
2022-08-11T22:56:50.814Z,77.00
2022-08-11T22:59:38.328Z,77.70
2022-08-11T23:02:25.433Z,77.70
2022-08-11T23:05:12.646Z,77.40
2022-08-11T23:08:00.804Z,77.30
2022-08-11T23:10:46.982Z,78.00
2022-08-11T23:13:33.823Z,77.80
2022-08-11T23:16:20.140Z,77.60
2022-08-11T23:19:07.619Z,78.00
2022-08-11T23:21:54.478Z,77.80
2022-08-11T23:24:40.992Z,78.50
2022-08-11T23:27:28.544Z,78.70
2022-08-11T23:30:18.679Z,79.60
2022-08-11T23:33:10.217Z,79.90
2022-08-11T23:36:02.278Z,79.40
2022-08-11T23:38:52.952Z,80.10
2022-08-11T23:41:40.456Z,80.10
2022-08-11T23:44:27.485Z,80.00
2022-08-11T23:47:15.602Z,80.20
2022-08-11T23:50:03.216Z,80.70
2022-08-11T23:52:52.201Z,81.10
2022-08-11T23:55:39.970Z,81.10
2022-08-11T23:58:26.429Z,80.80
